Latest Weather Observations for Ballarat

IDV60801

Issued at 8:02 am EST Thursday 30 July 2015 (issued every 30 minutes, with the page automatically refreshed every 10 minutes)

About weather observations | Map of weather stations | Latest weather observations for VIC | Other Formats
Station Details ID: 089002 Name: BALLARAT AERODROME Lat: -37.51 Lon: 143.79 Height: 435.2 m
Data from the previous 72 hours. | See also: Recent months at Ballarat
Date/Time
EST
Temp
°C
App
Temp
°C
Dew
Point
Rel
Hum
%
Delta-T
°C
Wind Press
QNH
hPa
Press
MSL
hPa
Rain
since 9 am
mm
Dir
 
Spd
km/h
Gust
km/h
Spd
kts
Gust
kts
30/08:00am 4.0 -6.2 3.1 94 0.4 N 46 57 25 31 1020.2 1021.1 0.0
30/07:30am 3.6 -5.3 3.3 98 0.1 N 39 54 21 29 1019.4 1020.3 0.0
30/07:00am 3.2 -5.7 2.9 98 0.1 N 39 48 21 26 1020.1 1021.0 0.0
30/06:30am 2.9 -4.7 2.6 98 0.1 N 32 37 17 20 1020.7 1021.5 0.0
30/06:00am 3.6 -5.4 2.7 94 0.4 N 39 50 21 27 1021.0 1021.9 0.0
30/05:30am 3.5 -5.1 2.8 95 0.3 N 37 50 20 27 1021.2 1022.1 0.0
30/05:00am 3.9 -5.0 3.0 94 0.4 N 39 48 21 26 1021.2 1022.1 0.0
30/04:30am 3.5 -4.7 2.8 95 0.3 N 35 48 19 26 1021.5 1022.4 0.0
30/04:00am 3.3 -4.4 2.4 94 0.4 NNE 32 39 17 21 1021.9 1022.8 0.0
30/03:30am 3.6 -4.0 2.7 94 0.4 N 32 41 17 22 1022.3 1023.2 0.0
30/03:00am 3.7 -4.0 2.5 92 0.5 N 32 41 17 22 1023.0 1023.9 0.0
30/02:30am 3.9 -3.7 2.6 91 0.5 N 32 39 17 21 1023.2 1024.1 0.0
30/02:00am 3.8 -3.8 2.6 92 0.5 N 32 39 17 21 1023.5 1024.4 0.0
30/01:30am 3.8 -3.4 2.9 94 0.4 N 30 39 16 21 1023.9 1024.8 0.0
30/01:00am 3.6 -3.7 2.7 94 0.4 N 30 35 16 19 1024.2 1025.1 0.0
30/12:30am 4.2 -2.6 2.9 91 0.5 N 28 35 15 19 1024.9 1025.9 0.0
30/12:00am 4.3 -2.6 2.8 90 0.6 N 28 35 15 19 1025.2 1026.2 0.0
 
Date/Time
EST
Temp
°C
App
Temp
°C
Dew
Point
Rel
Hum
%
Delta-T
°C
Wind Press
QNH
hPa
Press
MSL
hPa
Rain
since 9 am
mm
Dir
 
Spd
km/h
Gust
km/h
Spd
kts
Gust
kts
29/11:30pm 4.5 -2.0 2.8 89 0.7 N 26 33 14 18 1025.7 1026.6 0.0
29/11:00pm 4.8 -1.7 2.8 87 0.8 N 26 33 14 18 1025.8 1026.7 0.0
29/10:30pm 5.5 -1.3 3.2 85 1.0 N 28 37 15 20 1025.8 1026.7 0.0
29/10:00pm 5.7 -0.6 3.5 86 0.9 N 26 35 14 19 1026.4 1027.3 0.0
29/09:30pm 5.7 -1.0 3.5 86 0.9 N 28 37 15 20 1026.4 1027.3 0.0
29/09:00pm 5.7 -0.6 3.9 88 0.8 N 26 33 14 18 1026.6 1027.5 0.0
29/08:30pm 5.8 -0.5 3.8 87 0.9 N 26 35 14 19 1026.4 1027.3 0.0
29/08:00pm 6.0 -0.2 4.2 88 0.8 N 26 33 14 18 1026.6 1027.5 0.0
29/07:30pm 6.0 0.4 3.5 84 1.1 N 22 32 12 17 1026.9 1027.9 0.0
29/07:00pm 6.2 0.6 3.4 82 1.2 N 22 28 12 15 1026.6 1027.5 0.0
29/06:30pm 6.6 1.3 3.2 79 1.5 N 20 26 11 14 1026.9 1027.9 0.0
29/06:00pm 6.7 1.1 3.3 79 1.5 N 22 26 12 14 1026.9 1027.9 0.0
29/05:30pm 6.9 0.9 3.2 77 1.6 N 24 30 13 16 1026.8 1027.8 0.0
29/05:00pm 7.1 1.1 3.2 76 1.7 N 24 33 13 18 1027.2 1028.2 0.0
29/04:30pm 7.4 1.4 3.3 75 1.8 NNW 24 30 13 16 1027.3 1028.3 0.0
29/04:00pm 7.4 1.4 3.6 77 1.7 NNW 24 30 13 16 1027.4 1028.4 0.0
29/03:30pm 7.9 1.1 3.2 72 2.0 NNW 28 35 15 19 1027.5 1028.5 0.0
29/03:00pm 8.0 1.5 2.7 69 2.3 N 26 33 14 18 1027.4 1028.4 0.0
29/02:30pm 8.3 0.6 2.5 67 2.5 NNW 32 41 17 22 1027.9 1028.8 0.0
29/02:00pm 8.1 0.8 2.4 67 2.4 NNW 30 37 16 20 1028.6 1029.6 0.0
29/01:30pm 8.1 1.7 3.0 70 2.2 N 26 32 14 17 1029.2 1030.2 0.0
29/01:00pm 8.4 2.1 3.8 73 2.0 N 26 32 14 17 1029.7 1030.7 0.0
29/12:30pm 7.8 2.4 4.7 81 1.4 N 22 28 12 15 1030.5 1031.4 0.0
29/12:00pm 7.7 2.4 5.2 84 1.1 N 22 28 12 15 1031.1 1032.1 0.0
29/11:30am 7.4 2.8 6.5 94 0.4 N 20 26 11 14 1031.5 1032.5 0.0
29/11:24am 7.0 2.3 6.1 94 0.4 N 20 26 11 14 1031.8 1032.8 0.0
29/11:04am 6.9 2.5 6.6 98 0.1 NNW 19 24 10 13 1032.2 1033.2 0.0
29/11:00am 6.9 2.3 6.6 98 0.1 NNW 20 24 11 13 1032.1 1033.1 0.0
29/10:30am 6.7 2.1 6.4 98 0.1 N 20 26 11 14 1031.9 1032.9 0.0
29/10:00am 7.0 2.6 6.7 98 0.1 N 19 24 10 13 1032.0 1033.0 0.0
29/09:30am 6.7 2.2 6.0 95 0.3 N 19 22 10 12 1032.2 1033.2 0.0
29/09:00am 5.7 2.2 5.4 98 0.1 N 13 15 7 8 1032.1 1033.1 0.0
29/08:30am 4.3 0.5 4.0 98 0.1 N 13 15 7 8 1032.5 1033.6 0.0
29/08:00am 3.3 -0.3 3.2 99 0.0 N 11 13 6 7 1032.4 1033.5 0.0
29/07:30am 2.8 -0.1 2.7 99 0.0 N 7 9 4 5 1032.2 1033.2 0.0
29/07:00am 4.1 1.4 3.8 98 0.1 N 7 9 4 5 1032.1 1033.1 0.0
29/06:30am 5.2 2.3 4.9 98 0.1 NW 9 11 5 6 1031.8 1032.8 0.0
29/06:00am 6.0 3.3 5.6 97 0.2 N 9 13 5 7 1031.7 1032.7 0.0
29/05:30am 6.1 3.8 5.8 98 0.1 N 7 13 4 7 1031.7 1032.7 0.0
29/05:00am 6.1 3.5 6.0 99 0.0 N 9 13 5 7 1031.9 1032.9 0.0
29/04:30am 6.0 3.4 5.9 99 0.0 NNW 9 11 5 6 1031.8 1032.8 0.0
29/04:00am 6.1 3.1 6.0 99 0.0 NNW 11 11 6 6 1031.9 1032.9 0.0
29/03:30am 6.3 3.3 6.2 99 0.0 N 11 13 6 7 1031.8 1032.8 0.0
29/03:00am 6.0 5.1 5.9 99 0.0 CALM 0 0 0 0 1032.3 1033.3 0.0
29/02:30am 6.0 5.1 5.9 99 0.0 CALM 0 6 0 3 1032.3 1033.3 0.0
29/02:00am 6.0 3.7 5.9 99 0.0 NNE 7 9 4 5 1032.6 1033.7 0.0
29/01:30am 5.8 4.4 5.7 99 0.0 ENE 2 9 1 5 1032.8 1033.8 0.0
29/01:00am 5.8 3.7 5.7 99 0.0 NNE 6 7 3 4 1032.8 1033.8 0.0
29/12:30am 5.4 3.0 5.3 99 0.0 ENE 7 9 4 5 1032.5 1033.6 0.0
29/12:00am 5.5 3.3 5.4 99 0.0 WNW 6 6 3 3 1033.1 1034.1 0.0
 
Date/Time
EST
Temp
°C
App
Temp
°C
Dew
Point
Rel
Hum
%
Delta-T
°C
Wind Press
QNH
hPa
Press
MSL
hPa
Rain
since 9 am
mm
Dir
 
Spd
km/h
Gust
km/h
Spd
kts
Gust
kts
28/11:30pm 6.0 3.7 5.9 99 0.0 W 7 9 4 5 1033.3 1034.3 0.0
28/11:00pm 6.4 3.8 6.3 99 0.0 WNW 9 11 5 6 1033.6 1034.6 0.0
28/10:30pm 6.8 4.3 6.5 98 0.1 W 9 11 5 6 1033.5 1034.5 0.0
28/10:00pm 7.0 5.0 6.9 99 0.0 W 7 11 4 6 1033.7 1034.7 0.0
28/09:30pm 7.0 4.5 6.7 98 0.1 WNW 9 11 5 6 1034.0 1035.0 0.0
28/09:00pm 7.5 5.5 7.2 98 0.1 WSW 7 11 4 6 1034.0 1035.0 0.0
28/08:30pm 7.4 5.0 7.0 97 0.2 W 9 9 5 5 1033.9 1034.9 0.0
28/08:00pm 7.7 5.6 6.8 94 0.4 W 7 11 4 6 1033.8 1034.8 0.0
28/07:30pm 7.7 6.3 7.3 97 0.2 WSW 4 6 2 3 1033.8 1034.8 0.0
28/07:00pm 7.4 5.0 7.0 97 0.2 WNW 9 11 5 6 1033.6 1034.6 0.0
28/06:30pm 7.8 6.6 6.6 92 0.6 NW 2 6 1 3 1033.6 1034.6 0.0
28/06:00pm 8.0 6.0 6.3 89 0.8 NW 6 9 3 5 1033.4 1034.4 0.0
28/05:30pm 8.5 6.2 5.8 83 1.3 WNW 7 9 4 5 1033.2 1034.2 0.0
28/05:00pm 8.9 5.7 5.3 78 1.6 WSW 11 15 6 8 1033.3 1034.3 0.0
28/04:30pm 9.0 5.6 5.7 80 1.5 W 13 17 7 9 1033.3 1034.3 0.0
28/04:00pm 9.2 5.4 5.9 80 1.5 W 15 19 8 10 1033.2 1034.2 0.0
28/03:30pm 9.6 5.4 5.6 76 1.9 WSW 17 20 9 11 1033.1 1034.1 0.0
28/03:00pm 10.3 6.4 5.5 72 2.2 WSW 15 20 8 11 1033.0 1034.0 0.0
28/02:30pm 11.5 7.7 6.0 69 2.6 W 15 24 8 13 1033.0 1034.0 0.0
28/02:00pm 10.0 5.4 5.6 74 2.0 W 19 26 10 14 1033.3 1034.3 0.0
28/01:30pm 9.9 5.5 4.7 70 2.4 W 17 22 9 12 1033.5 1034.5 0.0
28/01:00pm 9.9 5.2 5.3 73 2.1 W 19 24 10 13 1033.7 1034.7 0.0
28/12:30pm 10.8 7.2 6.9 77 1.9 W 15 20 8 11 1034.1 1035.1 0.0
28/12:00pm 9.0 5.2 5.9 81 1.4 W 15 24 8 13 1034.5 1035.6 0.0
28/11:30am 8.5 4.5 6.5 87 0.9 WSW 17 24 9 13 1034.9 1036.0 0.0
28/11:00am 8.2 3.8 6.7 90 0.7 W 19 24 10 13 1034.9 1036.0 0.0
28/10:30am 7.6 3.4 7.3 98 0.1 WSW 19 26 10 14 1035.4 1036.4 0.0
28/10:00am 6.8 2.8 6.7 99 0.0 W 17 22 9 12 1035.3 1036.3 0.0
28/09:30am 6.0 2.6 6.0 100 0.0 W 13 17 7 9 1035.2 1036.2 0.0
28/09:00am 5.4 1.9 5.4 100 0.0 W 13 17 7 9 1034.9 1036.0 1.6
28/08:30am 4.9 1.7 4.9 100 0.0 WSW 11 15 6 8 1034.7 1035.8 1.6
28/08:00am 4.4 2.0 4.4 100 0.0 SW 6 9 3 5 1034.4 1035.5 1.6
28/07:30am 4.7 2.2 4.7 100 0.0 WSW 7 11 4 6 1034.1 1035.1 1.6
28/07:00am 5.0 1.8 5.0 100 0.0 WSW 11 17 6 9 1033.9 1034.9 1.6
28/06:30am 5.1 1.9 5.1 100 0.0 WSW 11 17 6 9 1033.4 1034.4 1.6
28/06:00am 5.0 0.6 5.0 100 0.0 WSW 17 22 9 12 1032.9 1033.9 1.6
28/05:30am 5.2 0.9 5.2 100 0.0 WSW 17 24 9 13 1032.5 1033.6 1.6
28/05:00am 5.3 1.0 5.3 100 0.0 WSW 17 24 9 13 1032.5 1033.6 1.6
28/04:30am 5.3 0.6 5.3 100 0.0 W 19 28 10 15 1032.4 1033.5 1.6
28/04:00am 5.3 0.6 5.3 100 0.0 W 19 24 10 13 1032.4 1033.5 1.6
28/03:30am 5.1 1.5 5.1 100 0.0 W 13 17 7 9 1032.4 1033.5 1.6
28/03:11am 5.0 0.6 5.0 100 0.0 W 17 22 9 12 1032.4 1033.5 1.6
28/03:00am 4.9 0.9 4.9 100 0.0 W 15 20 8 11 1032.5 1033.6 1.6
28/02:30am 4.7 1.4 4.7 100 0.0 W 11 15 6 8 1032.5 1033.6 1.6
28/02:00am 4.6 0.5 4.6 100 0.0 W 15 19 8 10 1032.3 1033.3 1.6
28/01:31am 4.6 0.5 4.6 100 0.0 W 15 20 8 11 1031.9 1032.9 1.6
28/01:30am 4.6 0.5 4.6 100 0.0 W 15 20 8 11 1031.9 1032.9 1.6
28/01:00am 4.4 1.1 4.4 100 0.0 W 11 15 6 8 1031.7 1032.7 1.6
28/12:30am 4.2 1.6 4.2 100 0.0 WNW 7 9 4 5 1031.9 1032.9 1.6
28/12:00am 3.9 1.4 3.9 100 0.0 N 6 7 3 4 1031.9 1032.9 1.6
 
Date/Time
EST
Temp
°C
App
Temp
°C
Dew
Point
Rel
Hum
%
Delta-T
°C
Wind Press
QNH
hPa
Press
MSL
hPa
Rain
since 9 am
mm
Dir
 
Spd
km/h
Gust
km/h
Spd
kts
Gust
kts
27/11:30pm 3.7 1.6 3.7 100 0.0 WSW 4 6 2 3 1031.9 1032.9 1.6
27/11:00pm 3.2 0.6 3.1 99 0.0 W 6 7 3 4 1031.8 1032.8 1.6
27/10:45pm 3.4 0.8 3.3 99 0.0 WSW 6 7 3 4 1031.8 1032.8 1.6
27/10:31pm 3.2 0.0 3.1 99 0.0 W 9 11 5 6 1031.7 1032.7 1.6
27/10:30pm 3.3 0.1 3.2 99 0.0 WSW 9 11 5 6 1031.7 1032.7 1.6
27/10:00pm 3.5 0.4 3.4 99 0.0 W 9 11 5 6 1031.8 1032.8 1.6
27/09:30pm 3.6 0.5 3.5 99 0.0 W 9 13 5 7 1031.6 1032.6 1.6
27/09:00pm 4.0 1.0 3.9 99 0.0 W 9 13 5 7 1031.5 1032.5 1.6
27/08:30pm 3.7 0.2 3.6 99 0.0 W 11 13 6 7 1031.4 1032.4 1.6
27/08:00pm 4.0 1.3 3.9 99 0.0 W 7 11 4 6 1031.4 1032.4 1.4
27/07:30pm 4.5 1.5 4.2 98 0.1 WSW 9 11 5 6 1031.2 1032.2 1.4
27/07:00pm 4.9 1.6 4.6 98 0.1 WSW 11 13 6 7 1030.9 1031.9 1.4
27/06:30pm 4.9 2.0 4.6 98 0.1 SW 9 11 5 6 1030.6 1031.6 1.4
27/06:00pm 5.9 2.1 5.6 98 0.1 WSW 15 20 8 11 1030.3 1031.2 1.4
27/05:30pm 6.2 3.2 5.9 98 0.1 W 11 17 6 9 1030.1 1031.1 1.4
27/05:00pm 6.4 3.0 6.1 98 0.1 WSW 13 17 7 9 1029.8 1030.8 1.4
27/04:30pm 6.6 2.9 6.3 98 0.1 WSW 15 20 8 11 1029.7 1030.7 1.4
27/04:00pm 6.0 1.4 5.7 98 0.1 SW 19 28 10 15 1029.5 1030.5 1.4
27/03:30pm 6.7 2.6 6.4 98 0.1 WSW 17 37 9 20 1029.3 1030.3 1.2
27/03:00pm 6.7 1.4 5.2 90 0.7 WSW 22 35 12 19 1029.0 1030.0 0.6
27/02:31pm 8.2 3.0 5.7 84 1.2 WSW 22 32 12 17 1028.6 1029.6 0.0
27/02:30pm 8.5 3.4 6.1 85 1.1 W 22 32 12 17 1028.6 1029.6 0.0
27/02:04pm 7.5 3.1 7.2 98 0.1 WSW 20 32 11 17 1028.5 1029.4 0.0
27/02:00pm 7.1 2.6 6.8 98 0.1 WSW 20 32 11 17 1028.4 1029.3 0.0
27/01:30pm 7.4 2.3 5.9 90 0.7 WSW 22 32 12 17 1028.6 1029.6 0.0
27/01:27pm 8.0 3.0 6.6 91 0.7 WSW 22 32 12 17 1028.5 1029.4 0.0
27/01:00pm 7.4 1.9 5.9 90 0.7 WSW 24 32 13 17 1028.7 1029.7 0.0
27/12:42pm 6.8 1.4 6.2 96 0.3 W 24 35 13 19 1028.9 1029.9 0.0
27/12:30pm 7.5 3.1 7.2 98 0.1 WSW 20 28 11 15 1029.0 1030.0 0.0
27/12:28pm 7.0 2.1 6.7 98 0.1 WSW 22 28 12 15 1029.0 1030.0 0.0
27/12:00pm 6.7 1.3 6.4 98 0.1 W 24 33 13 18 1029.3 1030.3 0.0
27/11:55am 7.0 2.1 6.9 99 0.0 W 22 32 12 17 1029.4 1030.4 0.0
27/11:31am 6.1 0.2 5.8 98 0.1 W 26 33 14 18 1029.5 1030.5 0.0
27/11:30am 6.3 0.4 6.0 98 0.1 W 26 33 14 18 1029.5 1030.5 0.0
27/11:00am 6.3 0.9 6.2 99 0.0 W 24 32 13 17 1029.3 1030.3 0.0
27/10:48am 5.2 -0.5 5.1 99 0.0 WSW 24 32 13 17 1029.3 1030.3 0.0
27/10:30am 5.2 -0.1 5.1 99 0.0 WSW 22 32 12 17 1029.2 1030.2 0.0
27/10:26am 5.5 0.3 5.4 99 0.0 WSW 22 32 12 17 1029.1 1030.1 0.0
27/10:22am 5.2 -0.9 4.9 98 0.1 W 26 35 14 19 1029.1 1030.1 0.0
27/10:00am 5.1 0.1 4.8 98 0.1 W 20 32 11 17 1028.8 1029.8 0.0
27/09:54am 4.8 0.4 4.7 99 0.0 WSW 17 28 9 15 1028.6 1029.6 0.0
27/09:30am 4.0 -0.2 3.9 99 0.0 W 15 20 8 11 1028.5 1029.4 0.0
27/09:00am 3.4 0.6 3.3 99 0.0 W 7 11 4 6 1028.2 1029.1 0.4
27/08:30am 2.6 -0.3 2.5 99 0.0 WSW 7 11 4 6 1027.7 1028.7 0.4

Other Formats:

Comma delimited format used in spreadsheet applications
http://www.bom.gov.au/fwo/IDV60801/IDV60801.94852.axf

JavaScript Object Notation format (JSON) in row-major order
http://www.bom.gov.au/fwo/IDV60801/IDV60801.94852.json